6 juillet 2022

Temps Code Temps Temp. Vue Base cloud Vent METAR/SPECI
3:00 pm
V
73 °F 9 mi 7.600 ft 360° 360° 5 kt METAR CYHU 061900Z AUTO 36005KT 330V040 9SM BKN076 23/15 A2992 RMK SLP134 DENSITY ALT 1100FT
2:00 pm
V
72 °F 9 mi 7.100 ft 010° 010° 10 kt METAR CYHU 061800Z AUTO 01010KT 330V040 9SM SCT046 BKN071 22/12 A2991 RMK SLP132 DENSITY ALT 1000FT
1:00 pm
V
70 °F 9 mi 5.500 ft 020° 020° 8 kt METAR CYHU 061700Z AUTO 02008KT 330V040 9SM SCT048 BKN055 21/13 A2991 RMK SLP132 DENSITY ALT 900FT
12:00 pm
V
70 °F 9 mi - 010° 010° 10 - 17 kt METAR CYHU 061600Z AUTO 01010G17KT 9SM CLR 21/12 A2991 RMK SLP130 DENSITY ALT 900FT
11:00 am
V
70 °F 9 mi - 010° 010° 12 kt METAR CYHU 061500Z AUTO 01012KT 9SM CLR 21/13 A2989 RMK SLP125 DENSITY ALT 800FT
10:00 am
V
68 °F 9 mi 6.000 ft 330° 330° 9 kt METAR CYHU 061400Z AUTO 33009KT 310V020 9SM SCT026 BKN060 20/14 A2988 RMK SLP120 DENSITY ALT 800FT
9:00 am
V
66 °F 9 mi 6.000 ft 340° 340° 8 kt METAR CYHU 061300Z AUTO 34008KT 9SM BKN060 19/15 A2987 RMK SLP117 DENSITY ALT 700FT
8:00 am
V
63 °F 9 mi 6.000 ft 350° 350° 8 - 15 kt METAR CYHU 061200Z AUTO 35008G15KT 9SM OVC060 17/14 A2986 RMK SLP113 DENSITY ALT 500FT
7:00 am
V
63 °F 9 mi 3.700 ft 340° 340° 10 kt METAR CYHU 061100Z AUTO 34010KT 9SM BKN037 OVC050 17/15 A2984 RMK SLP106 DENSITY ALT 400FT
6:00 am
M
61 °F 9 mi 2.900 ft 340° 340° 9 kt METAR CYHU 061000Z AUTO 34009KT 9SM OVC029 16/15 A2981 RMK SLP096 DENSITY ALT 400FT
5:36 am
M
61 °F 9 mi 2.500 ft 350° 350° 8 kt METAR CYHU 060936Z AUTO 35008KT 9SM OVC025 16/15 A2979 RMK SLP091 DENSITY ALT 400FT
5:00 am
M
61 °F 9 mi 1.500 ft 350° 350° 6 kt METAR CYHU 060900Z AUTO 35006KT 9SM OVC015 16/15 A2978 RMK SLP086 DENSITY ALT 400FT
4:40 am
M
61 °F 9 mi 1.300 ft 340° 340° 7 kt METAR CYHU 060840Z AUTO 34007KT 9SM SCT007 OVC013 16/15 A2977 RMK SLP083 DENSITY ALT 400FT
4:32 am
I
61 °F 6 mi 700 ft 340° 340° 8 kt METAR CYHU 060832Z AUTO 34008KT 6SM BR BKN007 OVC013 16/15 A2977 RMK SLP082 DENSITY ALT 400FT
4:21 am
I
61 °F 5 mi 900 ft 350° 350° 9 kt METAR CYHU 060821Z AUTO 35009KT 5SM BR BKN009 OVC020 16/15 A2976 RMK PRESRR SLP080 DENSITY ALT 400FT
4:02 am
I
61 °F 9 mi 900 ft 360° 360° 8 kt METAR CYHU 060802Z AUTO 36008KT 9SM BKN009 BKN020 OVC027 16/15 A2974 RMK SLP074 DENSITY ALT 500FT
4:00 am
M
61 °F 9 mi 1.100 ft 360° 360° 9 kt METAR CYHU 060800Z AUTO 36009KT 9SM FEW007 BKN011 BKN022 OVC029 16/15 A2974 RMK SLP074 DENSITY ALT 500FT
3:33 am
M
61 °F 9 mi 2.100 ft 360° 360° 10 - 15 kt METAR CYHU 060733Z AUTO 36010G15KT 9SM FEW009 SCT012 BKN021 OVC033 16/15 A2974 RMK SLP072 DENSITY ALT 500FT
3:08 am
M
61 °F 9 mi 1.000 ft 010° 010° 10 kt METAR CYHU 060708Z AUTO 01010KT 9SM BKN010 OVC019 16/15 A2974 RMK SLP072 DENSITY ALT 400FT
2:00 am
I
61 °F 9 mi 600 ft 010° 010° 10 kt METAR CYHU 060600Z AUTO 01010KT 9SM OVC006 16/15 A2972 RMK SLP066 DENSITY ALT 500FT
1:33 am
L
61 °F 6 mi 400 ft 020° 020° 8 kt METAR CYHU 060533Z AUTO 02008KT 6SM BR OVC004 16/15 A2971 RMK SLP064 DENSITY ALT 500FT
1:15 am
L
61 °F 3 mi 400 ft 010° 010° 10 kt METAR CYHU 060515Z AUTO 01010KT 3SM BR OVC004 16/15 A2973 RMK SLP068 DENSITY ALT 500FT
1:00 am
L
61 °F 3 mi 400 ft 030° 030° 10 - 15 kt METAR CYHU 060500Z AUTO 03010G15KT 3SM -RA BR OVC004 16/15 A2971 RMK SLP064 DENSITY ALT 500FT
12:52 am
L
61 °F 3 mi 400 ft 030° 030° 10 - 15 kt METAR CYHU 060452Z AUTO 03010G15KT 3SM -RA BR OVC004 16/15 A2971 RMK SLP064 DENSITY ALT 500FT
12:42 am
L
61 °F 2¼ mi 400 ft 020° 020° 10 - 16 kt METAR CYHU 060442Z AUTO 02010G16KT 2 1/4SM -RA BR OVC004 16/15 A2972 RMK SLP065 DENSITY ALT 500FT
12:35 am
L
61 °F 4 mi 400 ft 020° 020° 11 kt METAR CYHU 060435Z AUTO 02011KT 4SM -RA BR OVC004 16/16 A2972 RMK SLP066 DENSITY ALT 500FT
12:32 am
L
61 °F 5 mi 400 ft 020° 020° 11 kt METAR CYHU 060432Z AUTO 02011KT 5SM BR OVC004 16/16 A2972 RMK SLP065 DENSITY ALT 500FT
12:00 am
L
61 °F 7 mi 400 ft 010° 010° 9 kt METAR CYHU 060400Z AUTO 01009KT 7SM OVC004 16/16 A2973 RMK SLP069 DENSITY ALT 500FT

5 juillet 2022

Temps Code Temps Temp. Vue Base cloud Vent METAR/SPECI
11:37 pm
L
61 °F 6 mi 400 ft 010° 010° 8 kt METAR CYHU 060337Z AUTO 01008KT 6SM BR OVC004 16/16 A2973 RMK SLP069 DENSITY ALT 500FT
11:33 pm
L
61 °F 5 mi 400 ft 010° 010° 8 kt METAR CYHU 060333Z AUTO 01008KT 5SM BR OVC004 16/16 A2973 RMK SLP069 DENSITY ALT 500FT
11:00 pm
I
63 °F 4 mi 600 ft 350° 350° 4 kt METAR CYHU 060300Z AUTO 35004KT 4SM -RA BR OVC006 17/17 A2974 RMK SLP072 DENSITY ALT 600FT
10:57 pm
I
63 °F 5 mi 600 ft 360° 360° 4 kt METAR CYHU 060257Z AUTO 36004KT 5SM -RA BR OVC006 17/17 A2974 RMK SLP072 DENSITY ALT 600FT
10:30 pm
I
63 °F 4 mi 800 ft 020° 020° 4 kt METAR CYHU 060230Z AUTO 02004KT 4SM BR OVC008 17/17 A2974 RMK SLP074 DENSITY ALT 600FT
10:11 pm
I
63 °F 3 mi 800 ft 030° 030° 5 kt METAR CYHU 060211Z AUTO 03005KT 3SM -RA BR OVC008 17/17 A2975 RMK SLP077 DENSITY ALT 600FT
10:00 pm
I
64 °F 2¼ mi 600 ft 040° 040° 5 kt METAR CYHU 060200Z AUTO 04005KT 2 1/4SM -RA BR BKN006 OVC012 18/17 A2975 RMK PCPN 2.0MM PAST HR SLP077 DENSITY ALT 700FT
9:57 pm
I
64 °F 2 mi 1.100 ft 030° 030° 6 kt METAR CYHU 060157Z AUTO 03006KT 2SM -RA BR SCT006 OVC011 18/17 A2975 RMK PCPN 2.0MM PAST HR SLP078 DENSITY ALT 700FT
9:51 pm
I
64 °F 1¾ mi 900 ft 040° 040° 4 kt METAR CYHU 060151Z AUTO 04004KT 1 3/4SM -RA BR BKN009 OVC012 18/17 A2975 RMK PCPN 2.0MM PAST HR SLP078 DENSITY ALT 700FT
9:32 pm
I
64 °F 2½ mi 1.200 ft 050° 050° 3 kt METAR CYHU 060132Z AUTO 05003KT 2 1/2SM RA BR BKN012 OVC022 18/17 A2976 RMK PCPN 1.5MM PAST HR SLP079 DENSITY ALT 700FT
9:00 pm
I
64 °F 3 mi 1.700 ft 070° 070° 6 kt METAR CYHU 060100Z AUTO 07006KT 3SM -RA BR OVC017 18/17 A2975 RMK PCPN 2.0MM PAST HR SLP078 DENSITY ALT 700FT
8:00 pm
M
64 °F 4 mi 2.000 ft 070° 070° 6 kt METAR CYHU 060000Z AUTO 07006KT 4SM -RA BR BKN020 OVC025 18/17 A2977 RMK PCPN 1.8MM PAST HR SLP084 DENSITY ALT 700FT
7:52 pm
M
64 °F 5 mi 2.200 ft 050° 050° 4 kt METAR CYHU 052352Z AUTO 05004KT 5SM -RA BR OVC022 18/17 A2978 RMK PCPN 1.5MM PAST HR SLP086 DENSITY ALT 700FT
7:13 pm
M
66 °F 6 mi 2.400 ft 060° 060° 3 kt METAR CYHU 052313Z AUTO 06003KT 050V120 6SM -RA BR BKN024 OVC040 19/17 A2979 RMK SLP090 DENSITY ALT 800FT
7:00 pm
V
68 °F 9 mi 4.200 ft 120° 120° 3 kt METAR CYHU 052300Z AUTO 12003KT 110V180 9SM -RA SCT024 OVC042 20/17 A2979 RMK SLP090 DENSITY ALT 800FT
6:45 pm
M
68 °F 9 mi 2.600 ft 160° 160° 7 kt METAR CYHU 052245Z AUTO 16007KT 9SM -RA BKN026 BKN048 OVC055 20/16 A2979 RMK SLP090 DENSITY ALT 900FT
6:00 pm
V
68 °F 9 mi 6.600 ft 090° 090° 5 kt METAR CYHU 052200Z AUTO 09005KT 9SM BKN066 OVC086 20/16 A2981 RMK SLP095 DENSITY ALT 900FT
5:21 pm
V
68 °F 9 mi 9.200 ft 120° 120° 6 kt METAR CYHU 052121Z AUTO 12006KT 9SM SCT071 OVC092 20/16 A2983 RMK SLP102 DENSITY ALT 800FT
5:07 pm
V
68 °F 9 mi 7.100 ft 110° 110° 5 kt METAR CYHU 052107Z AUTO 11005KT 9SM -RA BKN071 OVC095 20/15 A2983 RMK SLP104 DENSITY ALT 900FT
4:00 pm
V
70 °F 9 mi 9.100 ft 070° 070° 5 kt METAR CYHU 052000Z AUTO 07005KT 9SM OVC091 21/16 A2986 RMK SLP112 DENSITY ALT 900FT
3:14 pm
V
68 °F 9 mi 9.600 ft 070° 070° 4 kt METAR CYHU 051914Z AUTO 07004KT 9SM OVC096 20/16 A2989 RMK SLP123 DENSITY ALT 800FT
3:02 pm
V
68 °F 9 mi 9.600 ft 080° 080° 5 kt METAR CYHU 051902Z AUTO 08005KT 9SM -RA OVC096 20/16 A2989 RMK SLP124 DENSITY ALT 800FT
3:00 pm
V
68 °F 9 mi 9.100 ft 080° 080° 4 kt METAR CYHU 051900Z AUTO 08004KT 9SM OVC091 20/16 A2989 RMK SLP124 DENSITY ALT 800FT
2:47 pm
V
68 °F 9 mi 9.600 ft 090° 090° 4 kt METAR CYHU 051847Z AUTO 09004KT 070V130 9SM SCT050 OVC096 20/16 A2990 RMK SLP126 DENSITY ALT 800FT
2:32 pm
V
68 °F 9 mi 5.000 ft 100° 100° 4 kt METAR CYHU 051832Z AUTO 10004KT 060V130 9SM -RA BKN050 OVC100 20/15 A2991 RMK SLP130 DENSITY ALT 800FT
2:00 pm
V
68 °F 9 mi 5.500 ft 120° 120° 3 kt METAR CYHU 051800Z AUTO 12003KT 040V170 9SM FEW040 BKN055 BKN100 20/14 A2992 RMK SLP133 DENSITY ALT 800FT
1:54 pm
V
68 °F 9 mi 5.500 ft 130° 130° 3 kt METAR CYHU 051754Z AUTO 13003KT 040V170 9SM FEW040 BKN055 BKN074 BKN110 20/14 A2992 RMK SLP135 DENSITY ALT 800FT
1:00 pm
V
66 °F 9 mi 6.600 ft 250° 250° 3 kt METAR CYHU 051700Z AUTO 25003KT 9SM -RA BKN066 OVC079 19/14 A2995 RMK SLP145 DENSITY ALT 600FT
12:37 pm
V
68 °F 9 mi 8.100 ft Var Var 2 kt METAR CYHU 051637Z AUTO VRB02KT 9SM -RA OVC081 20/12 A2996 RMK SLP147 DENSITY ALT 700FT
12:33 pm
V
68 °F 9 mi 8.100 ft Var Var 2 kt METAR CYHU 051633Z AUTO VRB02KT 9SM OVC081 20/14 A2996 RMK SLP147 DENSITY ALT 700FT
12:16 pm
V
68 °F 9 mi 8.100 ft Var 000° 0 kt METAR CYHU 051616Z AUTO 00000KT 9SM -RA FEW036 OVC081 20/14 A2997 RMK SLP150 DENSITY ALT 700FT
12:13 pm
V
68 °F 9 mi 8.600 ft Var Var 2 kt METAR CYHU 051613Z AUTO VRB02KT 9SM FEW036 OVC086 20/12 A2997 RMK SLP150 DENSITY ALT 700FT
12:00 pm
V
68 °F 9 mi 9.100 ft Var Var 3 kt METAR CYHU 051600Z AUTO VRB03KT 9SM -RA FEW035 OVC091 20/14 A2997 RMK SLP151 DENSITY ALT 700FT
11:28 am
V
68 °F 9 mi 9.600 ft 250° 250° 6 kt METAR CYHU 051528Z AUTO 25006KT 9SM -RA FEW040 OVC096 20/14 A2998 RMK SLP155 DENSITY ALT 700FT
11:17 am
V
68 °F 9 mi 9.600 ft 250° 250° 7 kt METAR CYHU 051517Z AUTO 25007KT 9SM SCT042 SCT050 OVC096 20/14 A2998 RMK SLP155 DENSITY ALT 600FT
11:00 am
V
68 °F 9 mi 4.500 ft 250° 250° 6 kt METAR CYHU 051500Z AUTO 25006KT 9SM -RA BKN045 OVC100 20/14 A2999 RMK SLP156 DENSITY ALT 600FT
10:00 am
V
68 °F 9 mi 4.200 ft 220° 220° 8 kt METAR CYHU 051400Z AUTO 22008KT 9SM -RA FEW031 BKN042 BKN100 20/13 A2999 RMK SLP158 DENSITY ALT 700FT
9:47 am
V
68 °F 9 mi 10.000 ft 240° 240° 7 kt METAR CYHU 051347Z AUTO 24007KT 9SM -RA FEW034 SCT050 BKN100 20/13 A2999 RMK SLP157 DENSITY ALT 700FT
9:06 am
V
68 °F 9 mi 5.500 ft 210° 210° 6 kt METAR CYHU 051306Z AUTO 21006KT 9SM SCT048 BKN055 OVC100 20/14 A3000 RMK SLP161 DENSITY ALT 700FT
9:00 am
V
68 °F 9 mi 5.500 ft 210° 210° 6 kt METAR CYHU 051300Z AUTO 21006KT 9SM -RA SCT048 BKN055 BKN078 OVC100 20/14 A3000 RMK SLP161 DENSITY ALT 600FT
8:25 am
V
66 °F 9 mi - 190° 190° 5 kt METAR CYHU 051225Z AUTO 19005KT 9SM -RA CLR 19/14 A3001 RMK SLP163 DENSITY ALT 600FT
8:00 am
V
66 °F 9 mi - 170° 170° 6 kt METAR CYHU 051200Z AUTO 17006KT 9SM CLR 19/13 A3001 RMK SLP163 DENSITY ALT 500FT
7:00 am
V
64 °F 9 mi 7.600 ft 180° 180° 6 kt METAR CYHU 051100Z AUTO 18006KT 9SM OVC076 18/13 A3002 RMK SLP166 DENSITY ALT 300FT
6:00 am
V
61 °F 9 mi 16.000 ft 170° 170° 5 kt METAR CYHU 051000Z AUTO 17005KT 9SM OVC160 16/12 A3002 RMK SLP166 DENSITY ALT 200FT
5:00 am
V
61 °F 9 mi 17.000 ft 140° 140° 4 kt METAR CYHU 050900Z AUTO 14004KT 9SM BKN170 16/12 A3002 RMK SLP167 DENSITY ALT 200FT
4:00 am
V
64 °F 9 mi - 220° 220° 4 kt METAR CYHU 050800Z AUTO 22004KT 9SM CLR 18/12 A3002 RMK SLP167 DENSITY ALT 400FT
3:00 am
V
64 °F 9 mi - 240° 240° 8 kt METAR CYHU 050700Z AUTO 24008KT 9SM CLR 18/13 A3002 RMK SLP168 DENSITY ALT 400FT
2:00 am
V
64 °F 9 mi - 230° 230° 7 kt METAR CYHU 050600Z AUTO 23007KT 9SM CLR 18/14 A3003 RMK SLP172 DENSITY ALT 400FT
1:00 am
V
68 °F 9 mi - 210° 210° 7 kt METAR CYHU 050500Z AUTO 21007KT 9SM SCT220 SCT240 20/13 A3004 RMK SLP174 DENSITY ALT 600FT
12:00 am
V
68 °F 9 mi - 240° 240° 8 kt METAR CYHU 050400Z AUTO 24008KT 9SM CLR 20/13 A3003 RMK SLP172 DENSITY ALT 600FT

4 juillet 2022

Temps Code Temps Temp. Vue Base cloud Vent METAR/SPECI
11:00 pm
V
70 °F 9 mi - 240° 240° 8 kt METAR CYHU 050300Z AUTO 24008KT 9SM CLR 21/13 A3004 RMK SLP174 DENSITY ALT 700FT
10:00 pm
V
68 °F 9 mi - 220° 220° 5 kt METAR CYHU 050200Z AUTO 22005KT 9SM CLR 20/13 A3004 RMK SLP174 DENSITY ALT 700FT
9:00 pm
V
70 °F 9 mi - 210° 210° 6 kt METAR CYHU 050100Z AUTO 21006KT 9SM CLR 21/12 A3002 RMK SLP169 DENSITY ALT 800FT
8:00 pm
V
73 °F 9 mi - 230° 230° 9 kt METAR CYHU 050000Z AUTO 23009KT 9SM CLR 23/11 A3003 RMK SLP170 DENSITY ALT 1000FT
7:00 pm
V
77 °F 9 mi - 250° 250° 12 kt METAR CYHU 042300Z AUTO 25012KT 9SM FEW081 25/10 A3002 RMK SLP169 DENSITY ALT 1200FT
6:00 pm
V
77 °F 9 mi - 290° 290° 10 - 15 kt METAR CYHU 042200Z AUTO 29010G15KT 9SM FEW076 25/09 A3003 RMK SLP170 DENSITY ALT 1200FT
5:00 pm
V
77 °F 9 mi 9.200 ft 220° 220° 12 kt METAR CYHU 042100Z AUTO 22012KT 200V270 9SM SCT071 BKN092 25/10 A3003 RMK SLP172 DENSITY ALT 1200FT
4:00 pm
V
73 °F 9 mi - 250° 250° 9 - 16 kt METAR CYHU 042000Z AUTO 25009G16KT 9SM SCT066 SCT081 23/10 A3005 RMK SLP177 DENSITY ALT 1000FT
3:00 pm
V
75 °F 9 mi 10.000 ft 250° 250° 13 kt METAR CYHU 041900Z AUTO 25013KT 9SM SCT071 BKN100 24/10 A3007 RMK SLP183 DENSITY ALT 1000FT
2:00 pm
V
73 °F 9 mi 8.800 ft 210° 210° 9 kt METAR CYHU 041800Z AUTO 21009KT 9SM FEW066 BKN088 23/10 A3007 RMK SLP185 DENSITY ALT 1000FT
1:00 pm
V
73 °F 9 mi 7.600 ft 230° 230° 8 kt METAR CYHU 041700Z AUTO 23008KT 9SM BKN076 23/08 A3008 RMK SLP189 DENSITY ALT 900FT
12:00 pm
V
75 °F 9 mi - Var Var 2 kt METAR CYHU 041600Z AUTO VRB02KT 9SM CLR 24/09 A3010 RMK SLP194 DENSITY ALT 900FT
11:00 am
V
72 °F 9 mi - Var Var 4 kt METAR CYHU 041500Z AUTO VRB04KT 9SM CLR 22/07 A3011 RMK SLP199 DENSITY ALT 800FT
Données plus anciennes

Télécharge notre application

Un accès facile à toute la météo aéronautique sur ton téléphone portable et ta tablette.
Avec de nombreuses fonctionnalités non disponibles sur le site Web, comme la prise en charge hors ligne et une liste personnelle d'aéroports.

Nous et des tiers suivons ton comportement sur Internet sur notre site Web à l'aide de cookies. Si tu continues, nous supposons que tu acceptes notre politique en matière de cookies. Apprendre plus